Hendrum, Minnesota
Current Conditions -  °F | °C
As of 9:53 PM on Tuesday 25 Nov 2014 (Local Time) from KFAR Reporting Station
Light Snow Light Snow  
Wind Chill: 14°   Ceiling: 2500
Heat Index: 24°   Visibility: 1.7mi
Dew Point: 19°   Wind: 9mph
Humidity: 81%   Direction: 50°NE
Pressure: 30"   Gusts: NA
Location:  47.26°N, 96.81°W
Report Text: KFAR 260353Z 05008KT 1 3/4SM -SN OVC025 M04/M07 A3000 RMK AO2 SLP174 P0001 T10441072
Loading
Personal Weather Stations






























Interactive Weather Map New forecast layout! Learn more

10-Day Weather Forecast

Advertisements
Track Severe Weather on mobile